Ouaquaga, NY (13826)

1:27 AM EST on January 26, 2015 (GMT -0500)
Rattlesnake Mountain, West Windsor | Change Station
CLOSE
Current Station
Personal Weather Station
Location: Windsor, NY
Elevation: 1461 ft
Nearby Weather Stations

Elev 1461 ft 42.10 °N, 75.76 °W | Updated 11 seconds ago

Partly Cloudy
Partly Cloudy
7.6 °F
Feels Like 8 °F
N
0.0
Wind Variable Wind from ESE
Gusts 0.0 mph

Today
High -- | Low -- °F
--% Chance of Precip.
Yesterday
High -- | Low -- °F
Precip. -- in
7:21 AM 5:09 PM
Waxing Crescent, 40% visible
Pressure 30.03 in
Visibility 10.0 miles
Clouds Few 12000 ft
Windchill 8 °F
Dew Point -2 °F
Humidity 65%
Rainfall 0.00 in
Snow Depth Not available.
UV 0 out of 12
Pollen .10 out of 12
Air Quality Not available.
Flu Activity Not available.
METAR KBGM 260553Z AUTO 06005KT 10SM FEW120 M14/M19 A2994 RMK AO2 SLP167 T11391189 11106 21139 50004

More Conditions Fewer Conditions

Pressure 30.03 in
Visibility 10.0 miles
Clouds Few 12000 ft
Windchill 8 °F
Dew Point -2 °F
Humidity 65%
Rainfall 0.00 in
Snow Depth Not available.
UV 0 out of 12
Pollen .10 out of 12
Air Quality Not available.
Flu Activity Not available.
METAR KBGM 260553Z AUTO 06005KT 10SM FEW120 M14/M19 A2994 RMK AO2 SLP167 T11391189 11106 21139 50004

More Conditions Fewer Conditions

10-Day Weather Forecast

Almanac

Astronomy

Jan. 26, 2015 Rise Set
Actual Time
Civil Twilight
Nautical Twilight
Astronomical Twilight
Moon
Length of Visible Light
Length of Day
Tomorrow will be .
, % of the Moon is Illuminated

Today's Extremes

State Highs State Lows

Community

WunderPhotos

Upload Photos

1,790,157 photos uploaded!

WunderBlogs® & News

Nearby

Air Quality

  Air Quality AQ Index Pollutant
Not available.

Snow Depth

Station Depth Elevation

Earthquake Activity

City Distance Mag. Time & Date
Minimum magnitude displayed is 2.5.

Coastal Water Temperatures

Place Temperature

Nearby Weather Stations